Time;durP1;ratioP1;P1;durP2;ratioP2;P2;SDS_P1;SDS_P2;PMS_P1;PMS_P2;Temp;Humidity;BMP_temperature;BMP_pressure;BME280_temperature;BME280_humidity;BME280_pressure;Samples;Min_cycle;Max_cycle;Signal;HPM_P1;HPM_P2
2023/02/13 00:01:32;;;;;;;18.90;12.52;;;5.60;99.90;;;;;;6130235;29;20044;-78
2023/02/13 00:04:34;;;;;;;14.25;11.07;;;5.70;99.90;;;;;;6130306;29;20056;-78
2023/02/13 00:07:37;;;;;;;14.43;11.02;;;5.70;99.90;;;;;;6130722;29;20529;-78
2023/02/13 00:10:39;;;;;;;16.73;12.05;;;5.60;99.90;;;;;;6129332;29;20054;-78
2023/02/13 00:13:41;;;;;;;17.95;13.45;;;5.60;99.90;;;;;;6128959;29;20059;-77
2023/02/13 00:16:42;;;;;;;17.38;12.73;;;5.60;99.90;;;;;;6129207;29;20048;-78
2023/02/13 00:19:44;;;;;;;19.58;12.55;;;5.60;99.90;;;;;;6128868;29;20410;-78
2023/02/13 00:22:47;;;;;;;19.48;14.32;;;5.60;99.90;;;;;;6129319;29;20064;-77
2023/02/13 00:25:49;;;;;;;18.60;11.90;;;5.60;99.90;;;;;;6129064;29;20052;-78
2023/02/13 00:28:50;;;;;;;18.38;12.43;;;5.60;99.90;;;;;;6129319;29;20050;-78
2023/02/13 00:31:52;;;;;;;16.70;12.20;;;5.50;99.90;;;;;;6129529;29;20059;-78
2023/02/13 00:34:54;;;;;;;17.50;12.95;;;5.50;99.90;;;;;;6130374;29;20172;-78
2023/02/13 00:37:57;;;;;;;20.65;13.70;;;5.50;99.90;;;;;;6129779;29;20052;-78
2023/02/13 00:40:59;;;;;;;15.32;11.38;;;5.40;99.90;;;;;;6129222;29;20070;-78
2023/02/13 00:44:00;;;;;;;20.23;14.90;;;5.40;99.90;;;;;;6129528;29;20055;-77
2023/02/13 00:47:02;;;;;;;24.50;14.70;;;5.30;99.90;;;;;;6129465;29;20425;-78
2023/02/13 00:50:05;;;;;;;20.35;14.52;;;5.30;99.90;;;;;;6128819;28;20446;-78
2023/02/13 00:53:08;;;;;;;19.35;14.43;;;5.20;99.90;;;;;;6129691;29;20059;-77
2023/02/13 00:56:10;;;;;;;20.52;13.82;;;5.10;99.90;;;;;;6129706;29;20047;-78
2023/02/13 00:59:11;;;;;;;21.20;15.25;;;5.10;99.90;;;;;;6129339;29;20059;-78
2023/02/13 01:02:13;;;;;;;19.20;13.82;;;5.00;99.90;;;;;;6129393;29;20036;-77
2023/02/13 01:05:15;;;;;;;22.35;16.20;;;4.90;99.90;;;;;;6130199;29;20051;-77
2023/02/13 01:08:19;;;;;;;25.55;16.08;;;4.90;99.90;;;;;;6133822;29;20070;-78
2023/02/13 01:11:21;;;;;;;24.35;18.08;;;4.80;99.90;;;;;;6133223;29;20059;-78
2023/02/13 01:14:22;;;;;;;23.25;14.85;;;4.80;99.90;;;;;;6133449;29;20091;-78
2023/02/13 01:17:24;;;;;;;31.25;18.13;;;4.70;99.90;;;;;;6129869;29;20055;-78
2023/02/13 01:20:26;;;;;;;30.75;17.27;;;4.60;99.90;;;;;;6131673;29;20538;-78
2023/02/13 01:23:32;;;;;;;29.08;17.45;;;4.50;99.90;;;;;;6135038;29;20056;-78
2023/02/13 01:26:34;;;;;;;30.70;16.25;;;4.30;99.90;;;;;;6134348;28;20047;-78
2023/02/13 01:29:36;;;;;;;29.15;19.05;;;4.20;99.90;;;;;;6135156;29;20044;-78
2023/02/13 01:32:38;;;;;;;36.05;20.60;;;4.10;99.90;;;;;;6134948;29;20063;-78
2023/02/13 01:35:39;;;;;;;28.75;19.02;;;4.00;99.90;;;;;;6135381;29;20052;-78
2023/02/13 01:38:42;;;;;;;33.40;21.15;;;4.00;99.90;;;;;;6134589;29;20063;-78
2023/02/13 01:41:44;;;;;;;33.83;21.50;;;3.90;99.90;;;;;;6134239;29;20046;-78
2023/02/13 01:44:48;;;;;;;29.50;19.15;;;3.80;99.90;;;;;;6132950;29;20066;-77
2023/02/13 01:47:53;;;;;;;39.55;20.70;;;3.80;99.90;;;;;;6133367;29;20055;-78
2023/02/13 01:51:00;;;;;;;29.55;20.77;;;3.80;99.90;;;;;;6132695;29;20052;-78
2023/02/13 01:54:07;;;;;;;40.57;21.70;;;3.80;99.90;;;;;;6133207;29;20529;-78
2023/02/13 01:57:14;;;;;;;34.47;19.00;;;3.80;99.90;;;;;;6133396;29;20291;-78
2023/02/13 02:00:17;;;;;;;36.92;21.00;;;3.80;99.90;;;;;;6132015;29;20250;-78
2023/02/13 02:03:24;;;;;;;34.92;21.55;;;3.80;99.90;;;;;;6133226;29;20051;-78
2023/02/13 02:06:30;;;;;;;36.83;21.10;;;3.80;99.90;;;;;;6132833;29;20051;-78
2023/02/13 02:09:39;;;;;;;35.20;21.33;;;3.80;99.90;;;;;;6132457;29;20051;-78
2023/02/13 02:12:47;;;;;;;38.28;21.58;;;3.80;99.90;;;;;;6132126;28;20055;-78
2023/02/13 02:15:49;;;;;;;39.25;22.23;;;3.80;99.90;;;;;;6132286;29;20052;-78
2023/02/13 02:18:51;;;;;;;38.40;22.17;;;3.80;99.90;;;;;;6131930;29;20052;-78
2023/02/13 02:22:19;;;;;;;36.58;22.73;;;3.70;99.90;;;;;;6133557;28;20048;-78
2023/02/13 02:26:08;;;;;;;44.03;22.42;;;3.70;99.90;;;;;;6133626;29;20414;-78
2023/02/13 02:29:31;;;;;;;41.93;24.27;;;3.70;99.90;;;;;;6065937;29;20049;-77
2023/02/13 02:33:00;;;;;;;37.05;21.13;;;3.60;99.90;;;;;;6132801;29;20052;-78
2023/02/13 02:36:17;;;;;;;40.03;23.58;;;3.60;99.90;;;;;;6132865;29;20050;-78
2023/02/13 02:39:26;;;;;;;34.20;22.08;;;3.50;99.90;;;;;;6132495;29;20063;-78
2023/02/13 02:42:34;;;;;;;40.72;25.15;;;3.40;99.90;;;;;;6132744;29;20059;-78
2023/02/13 02:45:43;;;;;;;35.08;20.40;;;3.40;99.90;;;;;;6132034;29;20069;-78
2023/02/13 02:52:17;;;;;;;41.83;23.55;;;3.30;99.90;;;;;;6132646;29;20048;-78
2023/02/13 02:55:32;;;;;;;42.92;25.25;;;3.30;99.90;;;;;;6133130;29;20052;-78
2023/02/13 03:22:17;;;;;;;40.72;24.63;;;3.10;99.90;;;;;;6133351;28;20051;-78
2023/02/13 03:22:41;;;;;;;44.40;25.00;;;3.00;99.90;;;;;;6094764;29;20507;-78
2023/02/13 03:26:04;;;;;;;38.35;23.30;;;3.00;99.90;;;;;;6132520;29;20055;-78
2023/02/13 03:32:40;;;;;;;47.55;25.98;;;2.90;99.90;;;;;;6132732;28;20047;-78
2023/02/13 03:39:19;;;;;;;51.35;28.27;;;2.70;99.90;;;;;;6132532;29;20048;-78
2023/02/13 03:42:27;;;;;;;45.45;23.77;;;2.70;99.90;;;;;;6132802;29;20536;-78
2023/02/13 03:52:16;;;;;;;41.55;24.02;;;2.50;99.90;;;;;;6132946;29;20502;-78
2023/02/13 04:02:12;;;;;;;46.08;25.35;;;2.30;99.90;;;;;;6132253;28;20048;-78
2023/02/13 04:05:17;;;;;;;42.15;24.20;;;2.20;99.90;;;;;;6131357;29;20051;-78
2023/02/13 04:08:19;;;;;;;42.63;24.30;;;2.20;99.90;;;;;;6131460;28;20060;-78
2023/02/13 04:11:30;;;;;;;49.65;26.67;;;2.10;99.90;;;;;;6131812;29;20051;-78
2023/02/13 04:14:38;;;;;;;52.03;25.63;;;2.00;99.90;;;;;;6130867;29;20047;-78
2023/02/13 04:17:41;;;;;;;;;;;2.00;99.90;;;;;;6129578;29;20417;-77
2023/02/13 04:20:43;;;;;;;51.50;26.08;;;2.00;99.90;;;;;;6128689;29;19923;-77
2023/02/13 04:23:45;;;;;;;55.42;27.45;;;1.90;99.90;;;;;;6128801;29;20421;-77
2023/02/13 04:26:48;;;;;;;51.72;27.80;;;1.80;99.90;;;;;;6129139;29;20059;-78
2023/02/13 04:29:50;;;;;;;56.03;28.25;;;1.90;99.90;;;;;;6128528;29;20051;-78
2023/02/13 04:32:51;;;;;;;49.38;26.55;;;1.80;99.90;;;;;;6128687;29;20058;-77
2023/02/13 04:35:53;;;;;;;54.30;26.65;;;1.80;99.90;;;;;;6130046;29;20056;-78
2023/02/13 04:38:55;;;;;;;49.33;27.42;;;1.80;99.90;;;;;;6129743;29;20081;-78
2023/02/13 04:41:58;;;;;;;64.03;28.05;;;1.70;99.90;;;;;;6132275;29;20044;-78
2023/02/13 04:44:59;;;;;;;52.30;29.67;;;1.70;99.90;;;;;;6134461;29;20054;-78
2023/02/13 04:48:01;;;;;;;54.53;27.42;;;1.60;99.90;;;;;;6133840;29;20414;-77
2023/02/13 04:51:03;;;;;;;50.00;27.50;;;1.60;99.90;;;;;;6133942;29;20048;-78
2023/02/13 04:54:05;;;;;;;48.35;26.00;;;1.50;99.90;;;;;;6134895;29;20059;-78
2023/02/13 04:57:08;;;;;;;52.03;27.52;;;1.50;99.90;;;;;;6134744;29;20051;-78
2023/02/13 05:00:11;;;;;;;48.05;28.25;;;1.40;99.90;;;;;;6133789;29;20051;-78
2023/02/13 05:03:13;;;;;;;47.13;25.33;;;1.40;99.90;;;;;;6110849;29;20051;-78
2023/02/13 05:06:15;;;;;;;43.83;24.13;;;1.30;99.90;;;;;;6109773;29;20047;-78
2023/02/13 05:09:17;;;;;;;50.35;24.45;;;1.20;99.90;;;;;;6123816;29;20052;-78
2023/02/13 05:12:20;;;;;;;53.30;24.92;;;1.10;99.90;;;;;;6133710;29;20433;-78
2023/02/13 05:15:22;;;;;;;47.88;26.40;;;1.10;99.90;;;;;;6133873;29;20525;-78
2023/02/13 05:18:24;;;;;;;47.20;26.17;;;1.00;99.90;;;;;;6134764;29;20169;-77
2023/02/13 05:24:45;;;;;;;50.70;26.97;;;0.90;99.90;;;;;;6135068;29;20043;-78
2023/02/13 05:27:47;;;;;;;48.10;24.80;;;0.80;99.90;;;;;;6133693;29;20052;-78
2023/02/13 05:30:48;;;;;;;56.40;27.30;;;0.70;99.90;;;;;;6133782;29;20096;-77
2023/02/13 05:33:50;;;;;;;52.47;26.37;;;0.70;99.90;;;;;;6133225;29;20506;-78
2023/02/13 05:36:52;;;;;;;48.37;26.40;;;0.60;99.90;;;;;;6134438;28;20055;-78
2023/02/13 05:39:54;;;;;;;52.30;27.80;;;0.60;99.90;;;;;;6133187;29;20051;-77
2023/02/13 05:42:57;;;;;;;52.73;27.73;;;0.60;99.90;;;;;;6133429;29;20043;-77
2023/02/13 05:46:03;;;;;;;51.60;29.77;;;0.60;99.90;;;;;;6132263;28;20055;-77
2023/02/13 05:49:05;;;;;;;60.73;27.93;;;0.60;99.90;;;;;;6131910;29;20531;-77
2023/02/13 05:52:07;;;;;;;44.13;25.07;;;0.60;99.90;;;;;;6134786;29;20051;-77
2023/02/13 05:55:08;;;;;;;54.33;27.90;;;0.60;99.90;;;;;;6132997;29;20052;-77
2023/02/13 05:58:11;;;;;;;48.70;28.43;;;0.60;99.90;;;;;;6124032;29;20043;-77
2023/02/13 06:01:13;;;;;;;49.87;28.43;;;0.60;99.90;;;;;;6131723;29;20059;-77
2023/02/13 06:04:24;;;;;;;52.17;26.17;;;0.60;99.90;;;;;;6130169;29;20536;-77
2023/02/13 06:07:25;;;;;;;45.47;23.93;;;0.50;99.90;;;;;;6132028;29;20051;-78
2023/02/13 06:10:27;;;;;;;45.23;25.50;;;0.50;99.90;;;;;;6130071;29;20056;-79
2023/02/13 06:13:31;;;;;;;46.10;22.40;;;0.40;99.90;;;;;;6129969;29;20055;-78
2023/02/13 06:16:33;;;;;;;50.03;25.03;;;0.40;99.90;;;;;;6128903;29;20510;-78
2023/02/13 06:19:35;;;;;;;51.43;28.17;;;0.30;99.90;;;;;;6130994;29;20058;-78
2023/02/13 06:22:36;;;;;;;57.50;29.03;;;0.30;99.90;;;;;;6130606;29;20052;-78
2023/02/13 06:25:38;;;;;;;54.43;25.30;;;0.20;99.90;;;;;;6130490;28;20051;-78
2023/02/13 06:28:41;;;;;;;57.80;28.33;;;0.20;99.90;;;;;;6130174;29;20048;-78
2023/02/13 06:31:43;;;;;;;58.27;29.07;;;0.20;99.90;;;;;;6129573;29;20055;-79
2023/02/13 06:34:45;;;;;;;58.20;29.83;;;0.30;99.90;;;;;;6130342;29;20056;-80
2023/02/13 06:37:47;;;;;;;57.13;28.00;;;0.40;99.90;;;;;;6129893;29;20054;-78
2023/02/13 06:40:49;;;;;;;51.33;27.67;;;0.40;99.90;;;;;;6129891;29;20130;-78
2023/02/13 06:43:52;;;;;;;48.67;25.27;;;0.40;99.90;;;;;;6130436;29;20055;-79
2023/02/13 06:46:54;;;;;;;61.80;28.20;;;0.40;99.90;;;;;;6130700;29;20056;-78
2023/02/13 06:49:56;;;;;;;51.83;29.00;;;0.30;99.90;;;;;;6128879;29;20051;-79
2023/02/13 06:52:57;;;;;;;60.17;31.47;;;0.30;99.90;;;;;;6129068;29;20058;-78
2023/02/13 06:56:02;;;;;;;55.33;29.93;;;0.20;99.90;;;;;;6129346;29;20502;-78
2023/02/13 06:59:06;;;;;;;54.97;29.37;;;0.30;99.90;;;;;;6128999;29;20051;-78
2023/02/13 07:02:09;;;;;;;61.53;31.07;;;0.30;99.90;;;;;;6129765;29;20063;-78
2023/02/13 07:05:11;;;;;;;55.27;29.23;;;0.30;99.90;;;;;;6133195;29;20067;-79
2023/02/13 07:08:13;;;;;;;57.17;30.33;;;0.30;99.90;;;;;;6132485;29;20051;-78
2023/02/13 07:11:18;;;;;;;54.00;28.90;;;0.40;99.90;;;;;;6131688;29;20052;-78
2023/02/13 07:14:21;;;;;;;62.87;30.77;;;0.40;99.90;;;;;;6132551;29;20059;-78
2023/02/13 07:17:23;;;;;;;64.47;35.07;;;0.50;99.90;;;;;;6134415;28;20052;-79
2023/02/13 07:20:26;;;;;;;68.00;32.30;;;0.60;99.90;;;;;;6134333;29;20506;-78
2023/02/13 07:23:27;;;;;;;69.80;33.40;;;0.70;99.90;;;;;;6135668;29;20052;-79
2023/02/13 07:26:29;;;;;;;59.37;31.90;;;0.80;99.90;;;;;;6133747;29;20043;-79
2023/02/13 07:29:32;;;;;;;53.83;31.60;;;0.90;99.90;;;;;;6132305;29;20048;-78
2023/02/13 07:32:34;;;;;;;67.77;32.27;;;1.10;99.90;;;;;;6134789;29;20125;-79
2023/02/13 07:35:36;;;;;;;55.75;28.40;;;1.20;99.90;;;;;;6134090;29;20052;-80
2023/02/13 07:38:38;;;;;;;53.53;28.92;;;1.20;99.90;;;;;;6134051;29;20437;-79
2023/02/13 07:41:40;;;;;;;70.35;30.60;;;1.40;99.90;;;;;;6133978;28;20058;-79
2023/02/13 07:44:43;;;;;;;46.22;25.92;;;1.40;99.90;;;;;;6133281;29;20051;-79
2023/02/13 07:47:45;;;;;;;53.13;25.58;;;1.50;99.90;;;;;;6139827;29;20134;-79
2023/02/13 07:50:47;;;;;;;43.25;23.77;;;1.60;99.90;;;;;;6143226;29;20544;-78
2023/02/13 07:53:49;;;;;;;38.70;22.20;;;1.80;99.90;;;;;;6139947;29;20044;-80
2023/02/13 07:56:50;;;;;;;40.22;23.05;;;1.80;99.90;;;;;;6150804;28;20058;-79
2023/02/13 07:59:53;;;;;;;41.25;23.10;;;1.90;99.90;;;;;;6152267;28;20051;-79
2023/02/13 08:02:55;;;;;;;36.63;21.40;;;2.10;99.90;;;;;;6132077;29;20067;-78
2023/02/13 08:05:57;;;;;;;37.40;22.92;;;2.20;99.90;;;;;;6135154;29;20044;-80
2023/02/13 08:12:18;;;;;;;35.85;22.13;;;2.60;99.90;;;;;;6130724;29;20047;-78
2023/02/13 08:15:21;;;;;;;29.35;19.33;;;2.70;99.90;;;;;;6130282;29;20459;-79
2023/02/13 08:18:22;;;;;;;28.40;16.00;;;2.80;99.90;;;;;;6132665;29;20066;-79
2023/02/13 08:21:24;;;;;;;23.65;15.43;;;2.90;99.90;;;;;;6133609;29;20064;-79
2023/02/13 08:24:26;;;;;;;24.88;16.33;;;2.90;99.90;;;;;;6128609;29;20117;-78
2023/02/13 08:27:29;;;;;;;22.75;17.38;;;2.90;99.90;;;;;;6130349;29;20056;-79
2023/02/13 08:30:32;;;;;;;20.95;16.38;;;3.00;99.90;;;;;;6126841;29;20059;-79
2023/02/13 08:33:33;;;;;;;23.48;15.85;;;3.10;99.90;;;;;;6128409;29;20044;-78
2023/02/13 08:36:35;;;;;;;23.48;16.42;;;3.40;99.90;;;;;;6127133;29;20052;-78
2023/02/13 08:39:37;;;;;;;24.17;15.52;;;3.50;99.90;;;;;;6127563;29;20055;-78
2023/02/13 08:42:38;;;;;;;37.33;15.60;;;3.50;99.90;;;;;;6127085;29;20044;-78
2023/02/13 08:45:41;;;;;;;31.98;17.25;;;3.40;99.90;;;;;;6128900;29;20470;-80
2023/02/13 08:48:43;;;;;;;43.92;18.75;;;3.30;99.90;;;;;;6129528;29;20546;-78
2023/02/13 08:51:45;;;;;;;46.70;21.48;;;3.10;99.90;;;;;;6127478;29;20055;-78
2023/02/13 08:54:47;;;;;;;76.93;21.48;;;3.10;99.90;;;;;;6132551;29;20048;-79
2023/02/13 08:57:48;;;;;;;35.88;22.60;;;3.10;99.90;;;;;;6137348;28;20058;-78
2023/02/13 09:00:51;;;;;;;43.75;20.88;;;3.10;99.90;;;;;;6150219;28;20425;-78
2023/02/13 09:03:53;;;;;;;42.50;21.23;;;3.30;99.90;;;;;;6143308;29;20050;-79
2023/02/13 09:06:56;;;;;;;43.97;21.65;;;3.40;99.90;;;;;;6128229;29;20052;-78
2023/02/13 09:09:57;;;;;;;48.33;22.98;;;3.50;99.90;;;;;;6126682;29;20047;-79
2023/02/13 09:13:00;;;;;;;52.17;22.05;;;3.50;99.90;;;;;;6131918;29;20044;-79
2023/02/13 09:16:04;;;;;;;47.35;24.65;;;3.50;99.90;;;;;;6131332;29;20050;-78
2023/02/13 09:19:06;;;;;;;47.30;23.13;;;3.40;99.90;;;;;;6127649;29;20059;-79
2023/02/13 09:22:08;;;;;;;44.22;24.05;;;3.50;99.90;;;;;;6130947;29;20063;-79
2023/02/13 09:25:10;;;;;;;52.40;24.10;;;3.60;99.90;;;;;;6132980;29;20054;-79
2023/02/13 09:28:11;;;;;;;43.30;25.02;;;3.60;99.90;;;;;;6135092;29;20044;-79
2023/02/13 09:31:16;;;;;;;36.53;22.58;;;3.70;99.90;;;;;;6136309;29;20051;-80
2023/02/13 09:34:17;;;;;;;46.78;23.85;;;3.70;99.90;;;;;;6137037;29;20044;-79
2023/02/13 09:37:19;;;;;;;42.42;23.58;;;3.90;99.90;;;;;;6136293;29;20513;-79
2023/02/13 09:40:26;;;;;;;50.08;26.95;;;3.90;99.90;;;;;;6137108;29;20054;-79
2023/02/13 09:43:31;;;;;;;37.17;26.58;;;4.00;99.90;;;;;;6137041;29;20051;-79
2023/02/13 09:46:37;;;;;;;38.65;24.13;;;4.20;99.90;;;;;;6136953;29;20044;-79
2023/02/13 09:49:43;;;;;;;37.60;24.13;;;4.40;99.90;;;;;;6140828;29;20055;-79
2023/02/13 09:52:47;;;;;;;33.85;22.58;;;4.60;99.90;;;;;;6141487;29;20120;-79
2023/02/13 09:55:58;;;;;;;41.83;23.95;;;4.70;99.90;;;;;;6141128;28;20070;-80
2023/02/13 09:59:06;;;;;;;37.90;24.98;;;4.70;99.90;;;;;;6157739;29;20059;-79
2023/02/13 10:02:26;;;;;;;42.53;23.58;;;4.80;99.90;;;;;;6165500;28;20047;-79
2023/02/13 10:05:43;;;;;;;39.88;24.42;;;4.90;99.90;;;;;;6163346;28;20051;-79
2023/02/13 10:08:58;;;;;;;35.30;22.10;;;4.90;99.90;;;;;;6164085;28;20054;-79
2023/02/13 10:12:32;;;;;;;37.80;23.35;;;5.00;99.90;;;;;;6164156;28;20043;-80
2023/02/13 10:15:42;;;;;;;36.92;21.90;;;5.10;99.90;;;;;;6156389;29;20074;-79
2023/02/13 10:18:52;;;;;;;33.53;21.90;;;5.20;99.90;;;;;;6138192;29;20062;-79
2023/02/13 10:21:58;;;;;;;33.55;23.33;;;5.40;99.90;;;;;;6137225;28;20433;-79
2023/02/13 10:25:04;;;;;;;31.58;22.15;;;5.60;99.90;;;;;;6137791;29;20052;-79
2023/02/13 10:28:11;;;;;;;36.60;23.48;;;5.70;99.90;;;;;;6138182;29;20044;-79
2023/02/13 10:31:17;;;;;;;31.30;20.00;;;5.70;99.90;;;;;;6138224;29;20051;-79
2023/02/13 10:34:28;;;;;;;33.75;24.40;;;5.90;99.90;;;;;;6139118;29;20048;-79
2023/02/13 10:37:29;;;;;;;33.75;23.83;;;6.10;99.90;;;;;;6138070;29;20052;-80
2023/02/13 10:40:38;;;;;;;36.45;22.10;;;6.20;99.90;;;;;;6137859;29;20057;-80
2023/02/13 10:43:50;;;;;;;32.42;21.80;;;6.50;99.90;;;;;;6136998;29;20051;-80
2023/02/13 10:47:01;;;;;;;34.05;21.15;;;6.90;99.90;;;;;;6139137;29;20051;-79
2023/02/13 10:50:19;;;;;;;31.90;21.77;;;7.60;99.90;;;;;;6139214;29;20055;-79
2023/02/13 10:53:26;;;;;;;24.33;16.63;;;8.20;99.90;;;;;;6140478;29;20054;-80
2023/02/13 10:56:35;;;;;;;30.00;20.83;;;8.60;99.90;;;;;;6140612;28;20051;-79
2023/02/13 10:59:50;;;;;;;27.65;19.50;;;9.10;99.90;;;;;;6145614;29;20059;-80
2023/02/13 11:02:51;;;;;;;31.73;18.17;;;9.70;99.90;;;;;;6142602;29;20091;-79
2023/02/13 11:05:56;;;;;;;24.90;17.38;;;10.20;99.90;;;;;;6143229;29;20082;-80
2023/02/13 11:08:59;;;;;;;24.55;18.25;;;10.60;99.90;;;;;;6143047;29;20059;-80
2023/02/13 11:12:24;;;;;;;27.65;20.50;;;10.90;99.90;;;;;;6143618;29;20043;-80
2023/02/13 11:15:27;;;;;;;22.95;17.20;;;11.30;99.90;;;;;;6144389;29;20044;-80
2023/02/13 11:18:32;;;;;;;24.92;20.45;;;11.50;99.90;;;;;;6143696;29;20058;-80
2023/02/13 11:21:37;;;;;;;27.25;19.13;;;11.90;99.90;;;;;;6140575;29;20051;-79
2023/02/13 11:24:41;;;;;;;27.52;18.25;;;12.30;99.90;;;;;;6142262;29;20435;-80
2023/02/13 11:27:43;;;;;;;21.27;17.45;;;12.70;99.90;;;;;;6142408;29;20669;-80
2023/02/13 11:30:45;;;;;;;21.55;17.00;;;13.00;99.90;;;;;;6142672;29;20051;-80
2023/02/13 11:33:47;;;;;;;24.95;19.30;;;13.10;99.90;;;;;;6139485;29;20060;-79
2023/02/13 11:36:51;;;;;;;23.58;19.05;;;13.30;99.90;;;;;;6140746;29;20047;-80
2023/02/13 11:39:55;;;;;;;23.45;17.83;;;13.50;99.90;;;;;;6141045;29;20059;-80
2023/02/13 11:42:56;;;;;;;21.83;16.55;;;13.70;99.90;;;;;;6140307;29;20056;-80
2023/02/13 11:46:03;;;;;;;21.48;17.02;;;14.00;99.90;;;;;;6140722;28;20052;-80
2023/02/13 11:49:12;;;;;;;24.17;19.50;;;14.30;99.90;;;;;;6140126;29;20051;-80
2023/02/13 11:52:27;;;;;;;21.40;17.60;;;14.50;99.40;;;;;;6140343;29;20048;-80
2023/02/13 11:55:34;;;;;;;23.45;18.25;;;14.60;98.80;;;;;;6139460;29;20056;-80
2023/02/13 11:58:36;;;;;;;22.42;17.90;;;14.80;98.50;;;;;;6139033;29;20055;-80
2023/02/13 12:01:38;;;;;;;21.50;16.00;;;14.80;97.80;;;;;;6146028;28;20047;-80
2023/02/13 12:04:41;;;;;;;21.10;16.52;;;14.90;97.40;;;;;;6139657;29;20994;-80
2023/02/13 12:07:46;;;;;;;24.80;17.75;;;15.00;96.50;;;;;;6131104;29;20503;-79
2023/02/13 12:10:47;;;;;;;24.35;17.48;;;14.90;96.40;;;;;;6117261;29;20052;-80
2023/02/13 12:13:51;;;;;;;25.08;18.30;;;15.00;95.80;;;;;;6114999;29;20056;-80
2023/02/13 12:16:57;;;;;;;28.75;20.33;;;15.10;95.30;;;;;;6125962;29;20051;-80
2023/02/13 12:19:59;;;;;;;27.23;19.95;;;15.30;95.00;;;;;;6137688;29;20067;-79
2023/02/13 12:26:46;;;;;;;22.45;18.67;;;15.40;94.00;;;;;;6108021;29;20743;-80
2023/02/13 12:30:04;;;;;;;23.52;18.67;;;15.60;93.70;;;;;;6112805;29;20058;-80
2023/02/13 12:33:16;;;;;;;23.63;17.88;;;15.70;93.10;;;;;;6115473;29;20052;-79
2023/02/13 12:36:24;;;;;;;23.23;18.00;;;15.80;93.10;;;;;;6113139;29;20084;-80
2023/02/13 12:39:32;;;;;;;21.80;17.35;;;16.20;92.60;;;;;;6115538;29;20059;-80
2023/02/13 12:42:43;;;;;;;23.70;18.40;;;16.50;91.70;;;;;;6116568;29;20056;-81
2023/02/13 12:45:53;;;;;;;23.98;18.50;;;16.80;91.20;;;;;;6118280;29;20054;-81
2023/02/13 12:49:05;;;;;;;60.10;53.85;;;16.90;90.70;;;;;;6115802;29;20052;-80
2023/02/13 12:52:27;;;;;;;23.52;17.70;;;16.90;90.30;;;;;;6121571;29;20122;-82
2023/02/13 12:55:42;;;;;;;20.58;16.48;;;16.90;89.30;;;;;;6140587;29;20059;-81
2023/02/13 12:59:00;;;;;;;27.27;20.73;;;17.00;89.30;;;;;;6143579;29;20056;-81
2023/02/13 13:02:44;;;;;;;30.65;22.35;;;17.20;88.10;;;;;;6164179;28;20058;-80
2023/02/13 13:06:07;;;;;;;21.40;18.58;;;17.40;87.30;;;;;;6127784;29;20048;-80
2023/02/13 13:09:31;;;;;;;27.38;22.17;;;17.50;86.30;;;;;;6149801;29;20443;-80
2023/02/13 13:12:45;;;;;;;27.00;19.63;;;17.60;86.00;;;;;;6130738;29;20137;-80
2023/02/13 13:15:55;;;;;;;35.80;32.00;;;17.70;85.30;;;;;;6125274;29;20051;-80
2023/02/13 13:19:05;;;;;;;22.90;20.20;;;17.50;85.10;;;;;;6126805;29;20067;-81
2023/02/13 13:22:17;;;;;;;24.95;20.88;;;17.50;84.40;;;;;;6124931;29;20040;-80
2023/02/13 13:25:25;;;;;;;40.97;36.78;;;17.50;84.10;;;;;;6125387;29;20056;-81
2023/02/13 13:28:32;;;;;;;28.13;22.95;;;17.60;84.00;;;;;;6131267;29;20088;-81
2023/02/13 13:31:35;;;;;;;26.08;19.35;;;17.80;83.50;;;;;;6126524;29;20048;-81
2023/02/13 13:34:39;;;;;;;36.00;28.50;;;17.70;83.10;;;;;;6172529;29;20047;-81
2023/02/13 13:37:47;;;;;;;23.02;19.15;;;17.70;82.40;;;;;;6172866;28;20055;-81
2023/02/13 13:40:56;;;;;;;24.85;20.00;;;17.70;82.20;;;;;;6172113;28;20221;-81
2023/02/13 13:44:19;;;;;;;24.23;19.38;;;17.80;81.60;;;;;;6171874;28;20051;-81
2023/02/13 13:47:32;;;;;;;23.15;18.77;;;17.80;81.30;;;;;;6173374;29;20055;-81
2023/02/13 13:50:40;;;;;;;22.17;18.85;;;18.10;80.80;;;;;;6173411;28;20054;-81
2023/02/13 13:54:20;;;;;;;24.23;20.95;;;18.20;80.20;;;;;;6171623;28;20076;-80
2023/02/13 13:57:23;;;;;;;23.70;19.95;;;18.20;79.50;;;;;;6146024;28;20178;-80
2023/02/13 14:00:28;;;;;;;26.13;19.67;;;18.10;79.80;;;;;;6150744;28;20058;-79
2023/02/13 14:03:37;;;;;;;23.23;20.35;;;18.10;79.70;;;;;;6172191;28;20055;-81
2023/02/13 14:07:13;;;;;;;22.58;19.10;;;18.10;79.10;;;;;;6173686;28;20417;-81
2023/02/13 14:11:06;;;;;;;18.50;16.23;;;18.00;78.50;;;;;;6169749;28;20062;-81
2023/02/13 14:14:51;;;;;;;37.00;33.25;;;17.80;79.40;;;;;;6171689;28;20047;-81
2023/02/13 14:17:55;;;;;;;21.38;18.73;;;17.70;79.40;;;;;;6171227;28;20062;-81
2023/02/13 14:21:00;;;;;;;33.40;29.35;;;17.80;79.30;;;;;;6169744;28;20398;-81
2023/02/13 14:24:03;;;;;;;21.80;18.35;;;17.80;79.10;;;;;;6163533;28;20043;-81
2023/02/13 14:27:05;;;;;;;23.38;19.63;;;17.60;78.50;;;;;;6169377;29;20051;-81
2023/02/13 14:30:26;;;;;;;24.77;18.67;;;17.40;78.80;;;;;;6165955;28;20039;-80
2023/02/13 14:33:32;;;;;;;23.50;19.42;;;17.10;78.90;;;;;;6165850;28;20583;-82
2023/02/13 14:36:36;;;;;;;24.00;18.75;;;17.20;79.10;;;;;;6165839;28;20047;-80
2023/02/13 14:39:40;;;;;;;22.83;18.70;;;17.30;78.50;;;;;;6166364;28;20058;-82
2023/02/13 14:42:46;;;;;;;20.98;18.77;;;17.20;78.50;;;;;;6164347;29;20055;-80
2023/02/13 14:45:53;;;;;;;23.70;18.85;;;16.90;78.40;;;;;;6164782;28;20050;-80
2023/02/13 14:49:01;;;;;;;20.55;18.20;;;16.90;78.90;;;;;;6159096;28;20054;-81
2023/02/13 14:52:06;;;;;;;26.85;17.98;;;17.00;78.60;;;;;;6156747;28;20047;-82
2023/02/13 14:55:15;;;;;;;22.73;18.73;;;16.80;78.30;;;;;;6162755;29;20047;-80
2023/02/13 14:58:23;;;;;;;20.50;18.20;;;16.60;78.40;;;;;;6162421;28;20054;-81
2023/02/13 15:01:30;;;;;;;21.20;18.13;;;16.60;78.90;;;;;;6158391;28;20051;-82
2023/02/13 15:04:39;;;;;;;19.67;17.63;;;16.70;79.00;;;;;;6160470;28;20079;-81
2023/02/13 15:07:47;;;;;;;23.77;19.48;;;16.70;78.60;;;;;;6162732;28;20549;-81
2023/02/13 15:10:49;;;;;;;;;;;16.50;78.90;;;;;;6164286;29;20054;-80
2023/02/13 15:13:51;;;;;;;24.10;18.95;;;16.40;79.10;;;;;;6159519;29;19922;-80
2023/02/13 15:16:57;;;;;;;24.50;19.85;;;16.10;79.10;;;;;;6160231;29;20043;-84
2023/02/13 15:20:08;;;;;;;25.08;19.40;;;16.10;80.00;;;;;;6155659;28;20412;-83
2023/02/13 15:23:20;;;;;;;25.05;21.30;;;16.10;79.80;;;;;;6155814;29;20050;-81
2023/02/13 15:26:23;;;;;;;24.20;19.08;;;16.10;80.00;;;;;;6154469;28;20043;-82
2023/02/13 15:29:25;;;;;;;25.67;20.95;;;16.00;80.00;;;;;;6159190;28;20101;-81
2023/02/13 15:32:29;;;;;;;27.13;22.48;;;15.90;80.20;;;;;;6157416;28;20421;-83
2023/02/13 15:35:36;;;;;;;25.50;21.92;;;15.70;80.30;;;;;;6157961;29;20043;-82
2023/02/13 15:38:38;;;;;;;25.60;21.88;;;15.40;81.00;;;;;;6158865;29;20129;-82
2023/02/13 15:41:42;;;;;;;34.47;28.35;;;15.20;81.50;;;;;;6154847;28;20051;-82
2023/02/13 15:44:47;;;;;;;26.00;22.17;;;15.00;81.70;;;;;;6158146;28;20043;-82
2023/02/13 15:47:49;;;;;;;26.45;21.52;;;14.90;82.20;;;;;;6158851;28;20065;-82
2023/02/13 15:50:52;;;;;;;26.77;20.90;;;14.50;83.20;;;;;;6157575;29;20141;-81
2023/02/13 15:53:56;;;;;;;25.80;21.98;;;13.90;83.90;;;;;;6153437;28;20039;-82
2023/02/13 15:57:03;;;;;;;27.98;24.70;;;13.20;85.00;;;;;;6155367;28;20057;-81
2023/02/13 16:00:13;;;;;;;46.55;24.15;;;12.60;86.20;;;;;;6155767;28;20057;-82
2023/02/13 16:03:17;;;;;;;27.50;22.17;;;12.20;87.10;;;;;;6156842;28;20066;-81
2023/02/13 16:06:23;;;;;;;30.50;24.17;;;11.60;88.00;;;;;;6155038;28;20502;-81
2023/02/13 16:09:27;;;;;;;29.23;21.45;;;11.20;89.30;;;;;;6153249;28;20051;-81
2023/02/13 16:12:30;;;;;;;27.80;21.75;;;10.80;90.00;;;;;;6152302;28;20422;-81
2023/02/13 16:15:34;;;;;;;31.00;22.80;;;10.40;90.40;;;;;;6154381;29;20520;-82
2023/02/13 16:18:36;;;;;;;30.40;21.95;;;10.00;90.90;;;;;;6155389;28;20506;-81
2023/02/13 16:21:40;;;;;;;31.38;22.92;;;9.70;91.30;;;;;;6153244;28;20043;-82
2023/02/13 16:24:47;;;;;;;30.38;22.90;;;9.40;91.70;;;;;;6155316;28;20072;-81
2023/02/13 16:27:51;;;;;;;30.17;22.05;;;9.10;92.00;;;;;;6155098;28;20059;-80
2023/02/13 16:30:58;;;;;;;29.83;22.55;;;8.90;92.30;;;;;;6150017;29;20542;-81
2023/02/13 16:34:01;;;;;;;32.60;22.73;;;8.60;92.60;;;;;;6160940;28;20126;-80
2023/02/13 16:37:04;;;;;;;28.45;19.35;;;8.40;93.00;;;;;;6164438;28;20136;-79
2023/02/13 16:40:38;;;;;;;32.63;22.33;;;8.20;93.40;;;;;;6167653;28;20047;-78
2023/02/13 16:43:43;;;;;;;35.30;21.77;;;7.90;93.90;;;;;;6167711;28;20057;-79
2023/02/13 16:46:50;;;;;;;37.80;22.45;;;7.70;94.00;;;;;;6167851;29;20054;-79